createdAt,value
2023-04-24T00:00:45.944Z,11.00
2023-04-24T00:03:49.324Z,9.32
2023-04-24T00:06:54.920Z,8.70
2023-04-24T00:09:59.783Z,9.10
2023-04-24T00:13:03.027Z,8.75
2023-04-24T00:16:06.666Z,9.45
2023-04-24T00:19:10.175Z,8.85
2023-04-24T00:22:14.150Z,9.10
2023-04-24T00:25:18.891Z,9.48
2023-04-24T00:28:22.176Z,9.77
2023-04-24T00:31:25.707Z,9.17
2023-04-24T00:34:29.171Z,9.25
2023-04-24T00:37:32.417Z,9.57
2023-04-24T00:40:36.984Z,9.38
2023-04-24T00:43:40.376Z,8.73
2023-04-24T00:46:44.379Z,9.10
2023-04-24T00:52:51.648Z,8.07
2023-04-24T00:55:56.124Z,9.55
2023-04-24T00:59:00.154Z,8.75
2023-04-24T01:02:03.810Z,9.20
2023-04-24T01:05:07.645Z,9.10
2023-04-24T01:08:10.951Z,9.05
2023-04-24T01:11:15.736Z,7.90
2023-04-24T01:14:18.914Z,6.95
2023-04-24T01:17:21.952Z,7.00
2023-04-24T01:20:27.066Z,6.47
2023-04-24T01:23:31.493Z,5.60
2023-04-24T01:26:35.206Z,5.18
2023-04-24T01:29:38.522Z,4.60
2023-04-24T01:32:45.290Z,4.63
2023-04-24T01:35:48.395Z,4.68
2023-04-24T01:38:53.044Z,5.33
2023-04-24T01:41:56.539Z,6.13
2023-04-24T01:44:59.710Z,5.97
2023-04-24T01:48:03.452Z,6.47
2023-04-24T01:51:06.680Z,6.50
2023-04-24T01:54:11.303Z,7.07
2023-04-24T01:57:15.750Z,6.47
2023-04-24T02:00:18.790Z,8.07
2023-04-24T02:03:21.903Z,7.68
2023-04-24T02:06:25.032Z,7.70
2023-04-24T02:09:29.384Z,6.97
2023-04-24T02:12:32.435Z,6.15
2023-04-24T02:15:36.898Z,6.22
2023-04-24T02:18:39.886Z,7.03
2023-04-24T02:21:42.879Z,6.50
2023-04-24T02:24:47.448Z,6.55
2023-04-24T02:27:50.879Z,7.20
2023-04-24T02:30:54.295Z,7.18
2023-04-24T02:33:57.234Z,6.97
2023-04-24T02:37:00.345Z,7.63
2023-04-24T02:40:06.791Z,8.25
2023-04-24T02:43:10.623Z,8.02
2023-04-24T02:46:13.699Z,7.88
2023-04-24T02:49:16.727Z,7.20
2023-04-24T02:52:19.901Z,8.95
2023-04-24T02:55:24.244Z,7.18
2023-04-24T02:58:27.247Z,8.55
2023-04-24T03:01:30.449Z,9.68
2023-04-24T03:04:34.335Z,10.85
2023-04-24T03:07:37.786Z,10.32
2023-04-24T03:10:42.198Z,10.57
2023-04-24T03:13:45.279Z,11.07
2023-04-24T03:16:48.257Z,10.90
2023-04-24T03:19:51.283Z,11.10
2023-04-24T03:22:54.293Z,11.30
2023-04-24T03:25:58.658Z,11.20
2023-04-24T03:29:01.672Z,10.75
2023-04-24T03:32:04.963Z,11.20
2023-04-24T03:35:09.298Z,10.40
2023-04-24T03:38:12.293Z,10.05
2023-04-24T03:41:16.805Z,9.82
2023-04-24T03:44:19.872Z,10.77
2023-04-24T03:50:27.889Z,11.60
2023-04-24T03:53:30.889Z,12.02
2023-04-24T03:56:35.434Z,12.27
2023-04-24T03:59:38.485Z,13.77
2023-04-24T04:02:41.535Z,14.35
2023-04-24T04:05:44.756Z,13.63
2023-04-24T04:08:47.765Z,15.20
2023-04-24T04:11:52.116Z,14.50
2023-04-24T04:14:55.180Z,12.52
2023-04-24T04:17:58.240Z,13.30
2023-04-24T04:21:02.115Z,13.60
2023-04-24T04:24:06.432Z,13.32
2023-04-24T04:27:11.876Z,13.27
2023-04-24T04:30:15.156Z,12.23
2023-04-24T04:33:18.115Z,12.20
2023-04-24T04:36:21.188Z,12.30
2023-04-24T04:39:24.184Z,12.60
2023-04-24T04:42:29.241Z,13.70
2023-04-24T04:45:33.731Z,13.38
2023-04-24T04:48:36.779Z,14.10
2023-04-24T04:51:41.209Z,16.08
2023-04-24T04:54:47.168Z,14.73
2023-04-24T05:01:14.412Z,14.27
2023-04-24T05:04:17.784Z,15.02
2023-04-24T05:07:21.274Z,13.20
2023-04-24T05:10:24.634Z,12.02
2023-04-24T05:13:38.448Z,12.65
2023-04-24T05:16:44.532Z,11.13
2023-04-24T05:19:47.595Z,11.93
2023-04-24T05:22:50.560Z,11.70
2023-04-24T05:25:53.547Z,12.60
2023-04-24T05:29:14.398Z,12.18
2023-04-24T05:32:17.625Z,13.10
2023-04-24T06:31:09.617Z,8.80
2023-04-24T06:34:12.597Z,8.27
2023-04-24T06:37:17.125Z,7.75
2023-04-24T06:40:20.610Z,8.43
2023-04-24T06:43:23.643Z,9.47
2023-04-24T06:46:28.785Z,9.15
2023-04-24T06:49:31.997Z,8.70
2023-04-24T06:52:36.257Z,8.38
2023-04-24T06:58:42.330Z,8.23
2023-04-24T07:01:46.768Z,8.18
2023-04-24T07:04:49.880Z,8.18
2023-04-24T07:07:53.457Z,7.72
2023-04-24T07:10:57.640Z,7.47
2023-04-24T07:14:00.891Z,7.63
2023-04-24T07:17:06.620Z,6.87
2023-04-24T07:20:11.443Z,6.57
2023-04-24T07:23:14.769Z,6.88
2023-04-24T07:26:17.744Z,6.43
2023-04-24T07:29:21.977Z,5.80
2023-04-24T07:35:29.695Z,5.95
2023-04-24T07:38:33.021Z,5.23
2023-04-24T07:41:36.143Z,5.93
2023-04-24T07:44:39.135Z,5.45
2023-04-24T07:47:46.513Z,5.30
2023-04-24T07:50:49.933Z,4.53
2023-04-24T07:53:53.139Z,4.47
2023-04-24T07:56:56.302Z,4.95
2023-04-24T07:59:59.604Z,4.97
2023-04-24T08:11:14.243Z,4.40
2023-04-24T08:14:17.585Z,4.05
2023-04-24T08:17:20.629Z,4.47
2023-04-24T08:20:23.620Z,3.92
2023-04-24T08:23:26.746Z,4.30
2023-04-24T08:26:31.448Z,4.22
2023-04-24T08:29:34.642Z,3.95
2023-04-24T08:32:38.510Z,4.05
2023-04-24T08:35:41.953Z,4.13
2023-04-24T08:38:47.296Z,3.73
2023-04-24T08:41:54.541Z,3.58
2023-04-24T08:44:58.900Z,2.88
2023-04-24T08:48:02.743Z,3.35
2023-04-24T08:51:09.639Z,3.42
2023-04-24T08:54:14.968Z,3.22
2023-04-24T08:57:20.849Z,2.70
2023-04-24T09:00:24.456Z,3.17
2023-04-24T09:03:29.267Z,3.05
2023-04-24T09:06:34.084Z,2.53
2023-04-24T09:09:38.135Z,2.53
2023-04-24T09:12:43.344Z,2.88
2023-04-24T09:15:46.676Z,3.17
2023-04-24T09:18:50.246Z,2.60
2023-04-24T09:21:55.298Z,2.70
2023-04-24T09:25:05.321Z,2.65
2023-04-24T09:28:10.295Z,2.80
2023-04-24T09:31:17.367Z,2.97
2023-04-24T09:34:23.747Z,2.88
2023-04-24T09:37:30.951Z,3.35
2023-04-24T09:40:36.785Z,3.08
2023-04-24T09:43:41.697Z,2.85
2023-04-24T09:46:46.980Z,2.83
2023-04-24T09:49:50.373Z,2.90
2023-04-24T09:52:59.645Z,3.00
2023-04-24T09:56:10.013Z,2.92
2023-04-24T09:59:14.585Z,3.58
2023-04-24T10:02:19.822Z,3.08
2023-04-24T10:05:25.484Z,3.15
2023-04-24T10:08:34.790Z,2.80
2023-04-24T10:11:37.964Z,2.75
2023-04-24T10:14:44.252Z,3.38
2023-04-24T10:17:53.154Z,2.85
2023-04-24T10:20:57.189Z,3.80
2023-04-24T10:24:01.147Z,3.97
2023-04-24T10:27:05.970Z,4.25
2023-04-24T10:30:14.013Z,3.20
2023-04-24T10:33:18.244Z,3.55
2023-04-24T10:39:28.427Z,3.42
2023-04-24T10:42:31.923Z,3.22
2023-04-24T10:45:36.743Z,3.77
2023-04-24T10:48:45.168Z,3.15
2023-04-24T10:51:50.605Z,3.45
2023-04-24T10:54:53.699Z,3.10
2023-04-24T10:58:05.006Z,3.17
2023-04-24T11:01:09.638Z,3.47
2023-04-24T11:04:12.726Z,3.65
2023-04-24T11:07:15.903Z,3.80
2023-04-24T11:10:27.801Z,4.30
2023-04-24T11:14:05.397Z,3.55
2023-04-24T11:17:09.825Z,3.45
2023-04-24T11:20:26.181Z,3.35
2023-04-24T11:23:38.234Z,4.30
2023-04-24T11:26:43.221Z,4.03
2023-04-24T11:29:50.167Z,3.35
2023-04-24T11:32:54.721Z,3.40
2023-04-24T11:35:58.172Z,3.30
2023-04-24T11:39:01.456Z,4.27
2023-04-24T11:42:07.054Z,4.00
2023-04-24T11:45:13.132Z,3.33
2023-04-24T11:48:23.455Z,4.05
2023-04-24T11:51:31.374Z,4.18
2023-04-24T11:54:40.166Z,4.15
2023-04-24T12:00:42.472Z,3.97
2023-04-24T12:03:50.280Z,3.38
2023-04-24T12:07:03.131Z,3.85
2023-04-24T12:10:31.798Z,4.43
2023-04-24T12:13:35.918Z,4.30
2023-04-24T12:16:38.968Z,4.32
2023-04-24T12:19:47.697Z,3.95
2023-04-24T12:22:54.701Z,3.58
2023-04-24T12:26:02.724Z,4.35
2023-04-24T12:29:06.220Z,4.57
2023-04-24T12:32:18.049Z,3.53
2023-04-24T12:35:23.094Z,3.97
2023-04-24T12:38:31.073Z,3.72
2023-04-24T12:41:35.834Z,3.97
2023-04-24T12:44:39.069Z,3.10
2023-04-24T12:47:43.960Z,3.50
2023-04-24T12:50:47.700Z,3.25
2023-04-24T12:53:51.339Z,3.53
2023-04-24T12:56:56.588Z,3.27
2023-04-24T13:00:01.182Z,3.60
2023-04-24T13:03:05.315Z,3.35
2023-04-24T13:06:08.863Z,2.95
2023-04-24T13:09:12.224Z,3.67
2023-04-24T13:12:16.970Z,2.90
2023-04-24T13:15:20.257Z,3.05
2023-04-24T13:18:23.390Z,2.80
2023-04-24T13:21:27.434Z,2.80
2023-04-24T13:24:30.679Z,2.88
2023-04-24T13:27:36.948Z,2.50
2023-04-24T13:30:40.826Z,3.13
2023-04-24T13:33:44.577Z,2.75
2023-04-24T13:36:48.469Z,2.70
2023-04-24T13:39:52.328Z,2.63
2023-04-24T13:46:03.008Z,2.65
2023-04-24T13:49:06.416Z,2.25
2023-04-24T13:52:11.388Z,1.77
2023-04-24T13:55:14.969Z,1.80
2023-04-24T13:58:19.632Z,2.17
2023-04-24T14:01:43.201Z,1.85
2023-04-24T14:04:46.684Z,1.67
2023-04-24T14:07:50.031Z,2.30
2023-04-24T14:10:53.315Z,1.80
2023-04-24T14:13:58.379Z,2.13
2023-04-24T14:17:02.829Z,2.22
2023-04-24T14:20:07.859Z,2.10
2023-04-24T14:23:10.793Z,2.17
2023-04-24T14:26:13.940Z,2.47
2023-04-24T14:29:17.643Z,2.78
2023-04-24T14:32:22.307Z,2.53
2023-04-24T14:35:25.387Z,2.25
2023-04-24T14:38:28.361Z,2.92
2023-04-24T14:41:32.388Z,2.20
2023-04-24T14:44:35.877Z,2.20
2023-04-24T14:47:40.421Z,2.65
2023-04-24T14:50:43.531Z,2.40
2023-04-24T14:53:47.906Z,2.22
2023-04-24T14:56:51.867Z,2.40
2023-04-24T14:59:55.145Z,2.45
2023-04-24T15:03:00.014Z,2.97
2023-04-24T15:06:03.414Z,2.72
2023-04-24T15:09:07.063Z,2.73
2023-04-24T15:12:10.809Z,3.00
2023-04-24T15:15:13.915Z,2.97
2023-04-24T15:18:18.433Z,2.85
2023-04-24T15:21:22.102Z,2.88
2023-04-24T15:24:25.389Z,2.85
2023-04-24T15:27:28.493Z,2.67
2023-04-24T15:30:31.796Z,2.72
2023-04-24T15:33:36.327Z,3.10
2023-04-24T15:36:39.427Z,3.03
2023-04-24T15:39:42.681Z,3.35
2023-04-24T15:42:46.080Z,2.80
2023-04-24T15:45:51.448Z,3.20
2023-04-24T15:48:56.056Z,2.70
2023-04-24T15:51:59.108Z,2.55
2023-04-24T15:55:02.220Z,2.75
2023-04-24T15:58:05.489Z,2.80
2023-04-24T16:01:08.643Z,2.90
2023-04-24T16:04:14.025Z,3.08
2023-04-24T16:07:18.211Z,3.05
2023-04-24T16:10:21.319Z,3.20
2023-04-24T16:13:24.754Z,2.47
2023-04-24T16:19:33.879Z,2.80
2023-04-24T16:22:37.027Z,2.65
2023-04-24T16:25:40.075Z,2.78
2023-04-24T16:28:43.670Z,2.58
2023-04-24T16:31:47.030Z,2.67
2023-04-24T16:34:51.936Z,2.60
2023-04-24T16:37:54.931Z,2.30
2023-04-24T16:40:57.960Z,2.95
2023-04-24T16:44:00.963Z,2.67
2023-04-24T16:47:04.445Z,2.65
2023-04-24T16:50:10.037Z,2.40
2023-04-24T16:53:13.529Z,2.45
2023-04-24T16:56:16.794Z,2.60
2023-04-24T16:59:19.735Z,2.30
2023-04-24T17:02:22.812Z,2.40
2023-04-24T17:05:27.295Z,2.65
2023-04-24T17:08:32.899Z,2.83
2023-04-24T17:11:36.486Z,2.63
2023-04-24T17:14:39.660Z,2.88
2023-04-24T17:17:44.309Z,2.38
2023-04-24T17:20:49.023Z,2.95
2023-04-24T17:23:52.226Z,2.72
2023-04-24T17:27:01.713Z,3.03
2023-04-24T17:30:12.593Z,3.17
2023-04-24T17:36:20.647Z,2.83
2023-04-24T17:39:24.009Z,3.55
2023-04-24T17:42:27.273Z,3.40
2023-04-24T17:45:30.295Z,2.80
2023-04-24T17:48:33.299Z,3.38
2023-04-24T17:51:37.759Z,3.67
2023-04-24T17:54:40.788Z,3.92
2023-04-24T17:57:43.906Z,3.30
2023-04-24T18:00:46.980Z,4.03
2023-04-24T18:03:50.137Z,5.03
2023-04-24T18:06:54.616Z,5.43
2023-04-24T18:09:57.611Z,5.40
2023-04-24T18:13:00.736Z,5.95
2023-04-24T18:16:03.927Z,5.85
2023-04-24T18:19:07.158Z,5.60
2023-04-24T18:22:11.810Z,5.85
2023-04-24T18:25:15.423Z,5.60
2023-04-24T18:28:18.699Z,5.95
2023-04-24T18:31:21.762Z,5.43
2023-04-24T18:34:25.873Z,6.13
2023-04-24T18:37:32.802Z,7.40
2023-04-24T18:40:35.806Z,7.90
2023-04-24T18:43:39.303Z,7.90
2023-04-24T18:46:42.498Z,9.73
2023-04-24T18:49:45.781Z,8.68
2023-04-24T18:53:09.712Z,7.55
2023-04-24T18:56:13.018Z,8.90
2023-04-24T18:59:16.271Z,8.60
2023-04-24T19:02:19.629Z,7.00
2023-04-24T19:05:22.731Z,8.03
2023-04-24T19:08:27.602Z,7.18
2023-04-24T19:11:30.778Z,6.25
2023-04-24T19:14:34.145Z,5.47
2023-04-24T19:17:37.558Z,4.70
2023-04-24T19:20:40.670Z,4.60
2023-04-24T19:23:45.930Z,4.38
2023-04-24T19:26:49.084Z,4.78
2023-04-24T19:29:52.250Z,4.95
2023-04-24T19:32:55.341Z,4.30
2023-04-24T19:35:58.388Z,4.18
2023-04-24T19:39:03.877Z,3.90
2023-04-24T19:42:07.753Z,3.20
2023-04-24T19:45:12.263Z,3.45
2023-04-24T19:48:15.700Z,3.97
2023-04-24T19:51:18.850Z,3.87
2023-04-24T19:54:23.666Z,4.10
2023-04-24T19:57:28.087Z,3.95
2023-04-24T20:00:31.101Z,4.45
2023-04-24T20:03:34.689Z,4.57
2023-04-24T20:06:38.470Z,3.97
2023-04-24T20:09:42.729Z,4.07
2023-04-24T20:15:49.223Z,4.53
2023-04-24T20:18:52.309Z,4.28
2023-04-24T20:21:55.601Z,4.80
2023-04-24T20:24:59.931Z,5.30
2023-04-24T20:28:03.441Z,5.60
2023-04-24T20:31:06.732Z,6.63
2023-04-24T20:34:10.307Z,6.83
2023-04-24T20:37:13.363Z,6.30
2023-04-24T20:40:19.661Z,6.65
2023-04-24T20:43:26.590Z,7.00
2023-04-24T20:46:47.268Z,6.82
2023-04-24T20:49:50.559Z,6.60
2023-04-24T20:52:53.950Z,7.00
2023-04-24T20:55:56.999Z,6.80
2023-04-24T20:59:01.258Z,7.25
2023-04-24T21:05:10.154Z,6.88
2023-04-24T21:08:13.210Z,5.65
2023-04-24T21:11:16.418Z,4.78
2023-04-24T21:14:19.319Z,4.47
2023-04-24T21:17:23.983Z,2.88
2023-04-24T21:20:27.051Z,2.50
2023-04-24T21:23:30.040Z,2.20
2023-04-24T21:26:33.367Z,2.03
2023-04-24T21:29:36.536Z,1.70
2023-04-24T21:32:41.269Z,2.08
2023-04-24T21:36:08.470Z,3.10
2023-04-24T21:39:11.459Z,2.70
2023-04-24T21:42:15.379Z,2.67
2023-04-24T21:45:18.648Z,2.25
2023-04-24T21:48:21.752Z,2.57
2023-04-24T21:51:26.133Z,2.47
2023-04-24T21:54:29.408Z,2.25
2023-04-24T22:01:19.224Z,2.08
2023-04-24T22:04:22.781Z,1.80
2023-04-24T22:07:26.028Z,1.75
2023-04-24T22:10:29.375Z,1.38
2023-04-24T22:13:32.454Z,1.80
2023-04-24T22:16:37.237Z,1.83
2023-04-24T22:19:41.715Z,1.35
2023-04-24T22:22:44.820Z,1.65
2023-04-24T22:25:47.898Z,1.30
2023-04-24T22:28:50.954Z,1.90
2023-04-24T22:31:56.640Z,2.35
2023-04-24T22:34:59.807Z,2.17
2023-04-24T22:38:03.638Z,2.50
2023-04-24T22:41:07.050Z,2.25
2023-04-24T22:44:10.168Z,2.20
2023-04-24T22:47:14.496Z,2.20
2023-04-24T22:50:18.100Z,1.83
2023-04-24T22:53:21.415Z,1.55
2023-04-24T22:56:24.660Z,2.57
2023-04-24T22:59:27.849Z,2.35
2023-04-24T23:02:32.518Z,1.88
2023-04-24T23:05:36.152Z,2.00
2023-04-24T23:08:39.164Z,2.40
2023-04-24T23:11:42.321Z,1.90
2023-04-24T23:14:46.204Z,2.50
2023-04-24T23:17:50.698Z,1.92
2023-04-24T23:20:53.750Z,1.83
2023-04-24T23:23:56.812Z,1.50
2023-04-24T23:26:59.784Z,2.20
2023-04-24T23:30:02.881Z,1.55
2023-04-24T23:33:07.236Z,1.65
2023-04-24T23:36:11.613Z,1.55
2023-04-24T23:39:14.710Z,1.23
2023-04-24T23:42:17.689Z,1.10
2023-04-24T23:45:20.906Z,1.00
2023-04-24T23:48:25.344Z,0.88
2023-04-24T23:51:28.442Z,0.60
2023-04-24T23:54:31.539Z,0.88
2023-04-24T23:57:34.806Z,0.90
